Observation data for Graham on 03/11/2018      Previous  Date  Next       Current Mesonet Observations  Soil Data  Daily Summary Page  Observations in Plain Language
KGHS 110600Z 36017KT 18/M11 A2987 RMK A01 T01751111  RH  013%=      5-min Rain = 0
KGHS 110605Z 36016KT 17/M11 A2987 RMK A01 T01701114  RH  013%=      5-min Rain = 0
KGHS 110610Z 01016KT 17/M11 A2987 RMK A01 T01681112  RH  014%=      5-min Rain = 0
KGHS 110615Z 35014KT 17/M11 A2987 RMK A01 T01651110  RH  014%=      5-min Rain = 0
KGHS 110620Z 36014KT 16/M11 A2987 RMK A01 T01631105  RH  015%=      5-min Rain = 0
KGHS 110625Z 34015KT 16/M10 A2988 RMK A01 T01591103  RH  016%=      5-min Rain = 0
KGHS 110630Z 35017G22KT 16/M10 A2988 RMK A01 T01551096  RH  017%=      5-min Rain = 0
KGHS 110635Z 01019G25KT 16/M08 A2988 RMK A01 T01571084  RH  018%=      5-min Rain = 0
KGHS 110640Z 01017G22KT 16/M07 A2989 RMK A01 T01581074  RH  020%=      5-min Rain = 0
KGHS 110645Z 36014KT 16/M07 A299 RMK A01 T01591067  RH  021%=      5-min Rain = 0
KGHS 110650Z 35014KT 16/M06 A2991 RMK A01 T01581060  RH  022%=      5-min Rain = 0
KGHS 110655Z 36016G22KT 16/M05 A2991 RMK A01 T01571049  RH  024%=      5-min Rain = 0
KGHS 110700Z 01018G23KT 16/M03 A2992 RMK A01 T01591031  RH  027%=      5-min Rain = 0
KGHS 110705Z 01019G26KT 16/M01 A2992 RMK A01 T01611011  RH  031%=      5-min Rain = 0
KGHS 110710Z 02021G27KT 17/02 A2992 RMK A01 T01650017  RH  037%=      5-min Rain = 0
KGHS 110715Z 01019G24KT 17/02 A2993 RMK A01 T01660022  RH  038%=      5-min Rain = 0
KGHS 110720Z 02021G32KT 17/03 A2993 RMK A01 T01650028  RH  040%=      5-min Rain = 0
KGHS 110725Z 03025G36KT 16/06 A2993 RMK A01 T01640063  RH  052%=      5-min Rain = 0
KGHS 110730Z 03025G33KT 16/08 A2993 RMK A01 T01620076  RH  058%=      5-min Rain = 0
KGHS 110735Z 03025G35KT 16/08 A2994 RMK A01 T01610081  RH  060%=      5-min Rain = 0
KGHS 110740Z 03027G36KT 16/09 A2994 RMK A01 T01590087  RH  063%=      5-min Rain = 0
KGHS 110745Z 03024G31KT 16/09 A2995 RMK A01 T01570089  RH  065%=      5-min Rain = 0
KGHS 110750Z 03027G33KT 16/09 A2995 RMK A01 T01560091  RH  067%=      5-min Rain = 0
KGHS 110755Z 03024G32KT 15/09 A2995 RMK A01 T01540093  RH  068%=      5-min Rain = 0
KGHS 110800Z 02027G36KT 15/09 A2995 RMK A01 T01530092  RH  068%=      5-min Rain = 0
KGHS 110805Z 02025G35KT 15/08 A2996 RMK A01 T01520081  RH  064%=      5-min Rain = 0
KGHS 110810Z 02030G39KT 15/04 A2996 RMK A01 T01460042  RH  050%=      5-min Rain = 0
KGHS 110815Z 02029G37KT 14/03 A2996 RMK A01 T01410026  RH  046%=      5-min Rain = 0
KGHS 110820Z 02026G35KT 14/02 A2996 RMK A01 T01390022  RH  046%=      5-min Rain = 0
KGHS 110825Z 03024G30KT 14/02 A2997 RMK A01 T01380019  RH  045%=      5-min Rain = 0
KGHS 110830Z 03028G38KT 14/01 A2997 RMK A01 T01360005  RH  041%=      5-min Rain = 0
KGHS 110835Z 03027G38KT 14/M01 A2997 RMK A01 T01361006  RH  038%=      5-min Rain = 0
KGHS 110840Z 03030G40KT 13/M02 A2996 RMK A01 T01341019  RH  035%=      5-min Rain = 0
KGHS 110845Z 03028G38KT 13/M03 A2996 RMK A01 T01331026  RH  034%=      5-min Rain = 0
KGHS 110850Z 03029G37KT 13/M03 A2997 RMK A01 T01321030  RH  033%=      5-min Rain = 0
KGHS 110855Z 03031G41KT 13/M03 A2997 RMK A01 T01311033  RH  032%=      5-min Rain = 0
KGHS 110900Z 03032G41KT 13/M04 A2997 RMK A01 T01301036  RH  032%=      5-min Rain = 0
KGHS 110905Z 03029G43KT 13/M04 A2998 RMK A01 T01291037  RH  032%=      5-min Rain = 0
KGHS 110910Z 03030G39KT 13/M04 A2997 RMK A01 T01281039  RH  031%=      5-min Rain = 0
KGHS 110915Z 03033G42KT 13/M04 A2997 RMK A01 T01281040  RH  031%=      5-min Rain = 0
KGHS 110920Z 03031G41KT 13/M04 A2998 RMK A01 T01271040  RH  031%=      5-min Rain = 0
KGHS 110925Z 03030G40KT 13/M04 A2998 RMK A01 T01261040  RH  032%=      5-min Rain = 0
KGHS 110930Z 03032G45KT 13/M04 A2998 RMK A01 T01261040  RH  032%=      5-min Rain = 0
KGHS 110935Z 03031G40KT 13/M04 A2998 RMK A01 T01251041  RH  032%=      5-min Rain = 0
KGHS 110940Z 03031G42KT 12/M04 A2999 RMK A01 T01241041  RH  032%=      5-min Rain = 0
KGHS 110945Z 03029G37KT 12/M04 A2999 RMK A01 T01231040  RH  032%=      5-min Rain = 0
KGHS 110950Z 02029G42KT 12/M04 A30 RMK A01 T01221039  RH  032%=      5-min Rain = 0
KGHS 110955Z 03028G41KT 12/M04 A30 RMK A01 T01221037  RH  033%=      5-min Rain = 0
KGHS 111000Z 03026G33KT 12/M04 A3001 RMK A01 T01211037  RH  033%=      5-min Rain = 0
KGHS 111005Z 03021G31KT 12/M04 A3002 RMK A01 T01201036  RH  034%=      5-min Rain = 0
KGHS 111010Z 03024G34KT 12/M04 A3001 RMK A01 T01191035  RH  034%=      5-min Rain = 0
KGHS 111015Z 03027G36KT 12/M03 A3001 RMK A01 T01191034  RH  035%=      5-min Rain = 0
KGHS 111020Z 03025G34KT 12/M03 A3002 RMK A01 T01191033  RH  035%=      5-min Rain = 0
KGHS 111025Z 03023G35KT 12/M03 A3003 RMK A01 T01181034  RH  035%=      5-min Rain = 0
KGHS 111030Z 03022G30KT 12/M04 A3003 RMK A01 T01171036  RH  034%=      5-min Rain = 0
KGHS 111035Z 03022G32KT 12/M04 A3004 RMK A01 T01171039  RH  034%=      5-min Rain = 0
KGHS 111040Z 03022G31KT 12/M04 A3004 RMK A01 T01171042  RH  033%=      5-min Rain = 0
KGHS 111045Z 03024G36KT 12/M05 A3004 RMK A01 T01171048  RH  032%=      5-min Rain = 0
KGHS 111050Z 03025G36KT 12/M05 A3004 RMK A01 T01181051  RH  031%=      5-min Rain = 0
KGHS 111055Z 03020G26KT 12/M05 A3005 RMK A01 T01161051  RH  031%=      5-min Rain = 0
KGHS 111100Z 03021G28KT 12/M05 A3005 RMK A01 T01151051  RH  031%=      5-min Rain = 0
KGHS 111105Z 03020G26KT 12/M05 A3005 RMK A01 T01151050  RH  032%=      5-min Rain = 0
KGHS 111110Z 03021G30KT 11/M05 A3005 RMK A01 T01141050  RH  031%=      5-min Rain = 0
KGHS 111115Z 03023G28KT 11/M05 A3005 RMK A01 T01141052  RH  031%=      5-min Rain = 0
KGHS 111120Z 03023G29KT 12/M05 A3005 RMK A01 T01151054  RH  031%=      5-min Rain = 0
KGHS 111125Z 03021G28KT 11/M05 A3005 RMK A01 T01141054  RH  031%=      5-min Rain = 0
KGHS 111130Z 03022G31KT 11/M06 A3006 RMK A01 T01131055  RH  031%=      5-min Rain = 0
KGHS 111135Z 03023G30KT 11/M06 A3005 RMK A01 T01131056  RH  031%=      5-min Rain = 0
KGHS 111140Z 03021G27KT 11/M06 A3006 RMK A01 T01121056  RH  031%=      5-min Rain = 0
KGHS 111145Z 03025G33KT 11/M06 A3006 RMK A01 T01121055  RH  031%=      5-min Rain = 0
KGHS 111150Z 03021G28KT 11/M05 A3006 RMK A01 T01121054  RH  031%=      5-min Rain = 0
KGHS 111155Z 03024G33KT 11/M05 A3006 RMK A01 T01111052  RH  032%=      5-min Rain = 0
KGHS 111200Z 03022G32KT 11/M05 A3007 RMK A01 T01101051  RH  032%=      5-min Rain = 0
KGHS 111205Z 03023G30KT 11/M05 A3008 RMK A01 T01091048  RH  033%=      5-min Rain = 0
KGHS 111210Z 03024G31KT 11/M04 A3008 RMK A01 T01081042  RH  035%=      5-min Rain = 0
KGHS 111215Z 03023G30KT 11/M04 A3008 RMK A01 T01071041  RH  036%=      5-min Rain = 0
KGHS 111220Z 03025G34KT 11/M04 A3008 RMK A01 T01051042  RH  036%=      5-min Rain = 0
KGHS 111225Z 03023G32KT 11/M04 A3008 RMK A01 T01051043  RH  036%=      5-min Rain = 0
KGHS 111230Z 03028G38KT 10/M05 A3008 RMK A01 T01041045  RH  035%=      5-min Rain = 0
KGHS 111235Z 03029G39KT 10/M05 A3008 RMK A01 T01021047  RH  035%=      5-min Rain = 0
KGHS 111240Z 03025G33KT 10/M05 A3009 RMK A01 T01021049  RH  035%=      5-min Rain = 0
KGHS 111245Z 03023G30KT 10/M05 A301 RMK A01 T01011048  RH  035%=      5-min Rain = 0
KGHS 111250Z 03021G28KT 10/M05 A3011 RMK A01 T01001048  RH  035%=      5-min Rain = 0
KGHS 111255Z 03022G29KT 10/M05 A3012 RMK A01 T01001047  RH  036%=      5-min Rain = 0
KGHS 111300Z 02022G27KT 10/M05 A3012 RMK A01 T00991045  RH  036%=      5-min Rain = 0
KGHS 111305Z 02021G27KT 10/M04 A3013 RMK A01 T00981044  RH  037%=      5-min Rain = 0
KGHS 111310Z 02023G29KT 10/M04 A3013 RMK A01 T00971043  RH  037%=      5-min Rain = 0
KGHS 111315Z 03024G32KT 10/M04 A3013 RMK A01 T00971043  RH  037%=      5-min Rain = 0
KGHS 111320Z 03022G28KT 10/M04 A3014 RMK A01 T00971042  RH  038%=      5-min Rain = 0
KGHS 111325Z 03020G26KT 10/M04 A3014 RMK A01 T00961040  RH  038%=      5-min Rain = 0
KGHS 111330Z 02020G26KT 10/M04 A3015 RMK A01 T00961040  RH  039%=      5-min Rain = 0
KGHS 111335Z 02021G26KT 10/M04 A3015 RMK A01 T00961040  RH  039%=      5-min Rain = 0
KGHS 111340Z 02018G25KT 10/M04 A3016 RMK A01 T00951039  RH  039%=      5-min Rain = 0
KGHS 111345Z 02020G27KT 10/M04 A3016 RMK A01 T00951038  RH  039%=      5-min Rain = 0
KGHS 111350Z 02018G27KT 10/M04 A3017 RMK A01 T00951038  RH  040%=      5-min Rain = 0
KGHS 111355Z 02021G29KT 09/M04 A3017 RMK A01 T00941040  RH  039%=      5-min Rain = 0
KGHS 111400Z 01024G32KT 09/M04 A3017 RMK A01 T00931040  RH  039%=      5-min Rain = 0
KGHS 111405Z 02024G30KT 09/M04 A3017 RMK A01 T00921039  RH  040%=      5-min Rain = 0
KGHS 111410Z 02021G27KT 09/M04 A3018 RMK A01 T00911039  RH  040%=      5-min Rain = 0
KGHS 111415Z 01021G30KT 09/M04 A3018 RMK A01 T00911040  RH  040%=      5-min Rain = 0
KGHS 111420Z 01023G30KT 09/M04 A3018 RMK A01 T00891044  RH  039%=      5-min Rain = 0
KGHS 111425Z 01023G30KT 09/M05 A3019 RMK A01 T00881049  RH  038%=      5-min Rain = 0
KGHS 111430Z 01022G29KT 09/M05 A3019 RMK A01 T00881051  RH  037%=      5-min Rain = 0
KGHS 111435Z 01020G25KT 09/M05 A302 RMK A01 T00881052  RH  037%=      5-min Rain = 0
KGHS 111440Z 01020G26KT 09/M05 A302 RMK A01 T00891053  RH  037%=      5-min Rain = 0
KGHS 111445Z 02022G27KT 09/M06 A302 RMK A01 T00901059  RH  035%=      5-min Rain = 0
KGHS 111450Z 02024G29KT 09/M06 A302 RMK A01 T00891064  RH  034%=      5-min Rain = 0
KGHS 111455Z 01022G29KT 09/M07 A3021 RMK A01 T00901065  RH  033%=      5-min Rain = 0
KGHS 111500Z 02023G31KT 09/M07 A3021 RMK A01 T00901067  RH  033%=      5-min Rain = 0
KGHS 111505Z 02022KT 09/M07 A3021 RMK A01 T00901067  RH  033%=      5-min Rain = 0
KGHS 111510Z 01024G30KT 09/M07 A3022 RMK A01 T00911071  RH  032%=      5-min Rain = 0
KGHS 111515Z 01023G29KT 09/M07 A3022 RMK A01 T00911073  RH  031%=      5-min Rain = 0
KGHS 111520Z 02023G30KT 09/M07 A3022 RMK A01 T00941074  RH  030%=      5-min Rain = 0
KGHS 111525Z 01023G30KT 10/M07 A3022 RMK A01 T00971074  RH  030%=      5-min Rain = 0
KGHS 111530Z 02024G30KT 10/M08 A3022 RMK A01 T00961078  RH  029%=      5-min Rain = 0
KGHS 111535Z 02021G28KT 10/M08 A3023 RMK A01 T00951078  RH  029%=      5-min Rain = 0
KGHS 111540Z 02022G29KT 09/M08 A3023 RMK A01 T00941083  RH  028%=      5-min Rain = 0
KGHS 111545Z 02023G28KT 09/M09 A3023 RMK A01 T00941085  RH  028%=      5-min Rain = 0
KGHS 111550Z 02020G27KT 09/M09 A3023 RMK A01 T00931088  RH  027%=      5-min Rain = 0
KGHS 111555Z 02021G27KT 09/M09 A3024 RMK A01 T00941088  RH  027%=      5-min Rain = 0
KGHS 111600Z 02020G26KT 10/M09 A3024 RMK A01 T00971088  RH  027%=      5-min Rain = 0
KGHS 111605Z 02025G32KT 10/M10 A3023 RMK A01 T01001096  RH  025%=      5-min Rain = 0
KGHS 111610Z 02024G31KT 10/M10 A3023 RMK A01 T01011096  RH  024%=      5-min Rain = 0
KGHS 111615Z 03023G30KT 10/M10 A3024 RMK A01 T01021101  RH  023%=      5-min Rain = 0
KGHS 111620Z 02021G30KT 10/M09 A3024 RMK A01 T01011090  RH  025%=      5-min Rain = 0
KGHS 111625Z 02024KT 10/M09 A3025 RMK A01 T00991092  RH  025%=      5-min Rain = 0
KGHS 111630Z 02026G31KT 10/M09 A3024 RMK A01 T00991094  RH  025%=      5-min Rain = 0
KGHS 111635Z 02022G29KT 10/M09 A3025 RMK A01 T00991094  RH  025%=      5-min Rain = 0
KGHS 111640Z 03022G27KT 10/M09 A3026 RMK A01 T00981092  RH  026%=      5-min Rain = 0
KGHS 111645Z 02018G25KT 10/M09 A3026 RMK A01 T00991088  RH  026%=      5-min Rain = 0
KGHS 111650Z 02019G25KT 10/M09 A3026 RMK A01 T01021088  RH  026%=      5-min Rain = 0
KGHS 111655Z 02022G29KT 10/M09 A3026 RMK A01 T01041091  RH  025%=      5-min Rain = 0
KGHS 111700Z 02024G30KT 10/M10 A3026 RMK A01 T01041099  RH  023%=      5-min Rain = 0
KGHS 111705Z 02021G29KT 11/M09 A3027 RMK A01 T01051091  RH  025%=      5-min Rain = 0
KGHS 111710Z 02020G26KT 10/M09 A3027 RMK A01 T01011085  RH  026%=      5-min Rain = 0
KGHS 111715Z 01018G23KT 10/M09 A3027 RMK A01 T01001085  RH  027%=      5-min Rain = 0
KGHS 111720Z 02017G24KT 10/M09 A3027 RMK A01 T01001086  RH  026%=      5-min Rain = 0
KGHS 111725Z 03019G26KT 10/M09 A3028 RMK A01 T00981092  RH  026%=      5-min Rain = 0
KGHS 111730Z 03019G25KT 10/M09 A3028 RMK A01 T00951092  RH  026%=      5-min Rain = 0
KGHS 111735Z 02015G20KT 10/M08 A3028 RMK A01 T00961083  RH  028%=      5-min Rain = 0
KGHS 111740Z 01015G22KT 10/M08 A3028 RMK A01 T00971080  RH  028%=      5-min Rain = 0
KGHS 111745Z 02017G23KT 10/M09 A3028 RMK A01 T00981085  RH  027%=      5-min Rain = 0
KGHS 111750Z 02019G25KT 10/M09 A3028 RMK A01 T00971090  RH  026%=      5-min Rain = 0
KGHS 111755Z 02018G25KT 10/M09 A3028 RMK A01 T00971094  RH  025%=      5-min Rain = 0
KGHS 111800Z 03015G22KT 10/M09 A3028 RMK A01 T00991092  RH  025%=      5-min Rain = 0
KGHS 111805Z 02018G23KT 10/M09 A3029 RMK A01 T01001092  RH  025%=      5-min Rain = 0
KGHS 111810Z 02017G23KT 10/M09 A3029 RMK A01 T01021092  RH  025%=      5-min Rain = 0
KGHS 111815Z 03017G22KT 10/M10 A3029 RMK A01 T01031095  RH  024%=      5-min Rain = 0
KGHS 111820Z 02016G22KT 10/M09 A3029 RMK A01 T01041088  RH  025%=      5-min Rain = 0
KGHS 111825Z 02015G21KT 11/M08 A3029 RMK A01 T01051084  RH  026%=      5-min Rain = 0
KGHS 111830Z 02016G22KT 11/M09 A3029 RMK A01 T01061088  RH  025%=      5-min Rain = 0
KGHS 111835Z 02016KT 10/M09 A3029 RMK A01 T01021092  RH  025%=      5-min Rain = 0
KGHS 111840Z 03014G19KT 10/M09 A3029 RMK A01 T01001091  RH  025%=      5-min Rain = 0
KGHS 111845Z 03014G19KT 10/M09 A3029 RMK A01 T01011088  RH  026%=      5-min Rain = 0
KGHS 111850Z 02013G18KT 10/M09 A3029 RMK A01 T01011088  RH  026%=      5-min Rain = 0
KGHS 111855Z 02014G19KT 10/M09 A3028 RMK A01 T01021087  RH  026%=      5-min Rain = 0
KGHS 111900Z 03011KT 10/M09 A3028 RMK A01 T01041085  RH  026%=      5-min Rain = 0
KGHS 111905Z 03010KT 11/M09 A3028 RMK A01 T01071085  RH  025%=      5-min Rain = 0
KGHS 111910Z 02017KT 11/M10 A3027 RMK A01 T01081098  RH  023%=      5-min Rain = 0
KGHS 111915Z 03015G21KT 11/M10 A3027 RMK A01 T01081096  RH  023%=      5-min Rain = 0
KGHS 111920Z 03014G19KT 11/M10 A3028 RMK A01 T01091096  RH  023%=      5-min Rain = 0
KGHS 111925Z 01012KT 11/M09 A3028 RMK A01 T01131092  RH  023%=      5-min Rain = 0
KGHS 111930Z 04014KT 12/M09 A3027 RMK A01 T01171092  RH  022%=      5-min Rain = 0
KGHS 111935Z 01013G22KT 12/M09 A3027 RMK A01 T01191092  RH  022%=      5-min Rain = 0
KGHS 111940Z 02013G19KT 12/M09 A3027 RMK A01 T01171092  RH  022%=      5-min Rain = 0
KGHS 111945Z 01015KT 12/M10 A3026 RMK A01 T01161095  RH  022%=      5-min Rain = 0
KGHS 111950Z 02015G20KT 12/M10 A3027 RMK A01 T01181098  RH  021%=      5-min Rain = 0
KGHS 111955Z 03017G22KT 12/M10 A3027 RMK A01 T01191095  RH  022%=      5-min Rain = 0
KGHS 112000Z 02015G20KT 12/M10 A3026 RMK A01 T01181097  RH  022%=      5-min Rain = 0
KGHS 112005Z 02011G16KT 12/M10 A3027 RMK A01 T01181096  RH  022%=      5-min Rain = 0
KGHS 112010Z 01012G17KT 12/M10 A3027 RMK A01 T01211096  RH  021%=      5-min Rain = 0
KGHS 112015Z 01014G19KT 12/M10 A3026 RMK A01 T01231097  RH  021%=      5-min Rain = 0
KGHS 112020Z 03015G22KT 13/M10 A3026 RMK A01 T01251097  RH  020%=      5-min Rain = 0
KGHS 112025Z 04011G16KT 13/M10 A3026 RMK A01 T01271096  RH  020%=      5-min Rain = 0
KGHS 112030Z 03015KT 13/M10 A3025 RMK A01 T01291096  RH  020%=      5-min Rain = 0
KGHS 112035Z 01014G21KT 13/M10 A3025 RMK A01 T01261097  RH  020%=      5-min Rain = 0
KGHS 112040Z 03014G21KT 13/M10 A3025 RMK A01 T01281095  RH  020%=      5-min Rain = 0
KGHS 112045Z 02013KT 13/M09 A3025 RMK A01 T01281094  RH  021%=      5-min Rain = 0
KGHS 112050Z 00011KT 13/M10 A3025 RMK A01 T01291095  RH  020%=      5-min Rain = 0
KGHS 112055Z 02015G20KT 13/M10 A3024 RMK A01 T01311095  RH  020%=      5-min Rain = 0
KGHS 112100Z 01014G20KT 13/M09 A3024 RMK A01 T01341094  RH  020%=      5-min Rain = 0
KGHS 112105Z 03015KT 13/M09 A3024 RMK A01 T01341094  RH  020%=      5-min Rain = 0
KGHS 112110Z 02013G18KT 13/M09 A3024 RMK A01 T01321094  RH  020%=      5-min Rain = 0
KGHS 112115Z 35012G17KT 13/M09 A3024 RMK A01 T01331094  RH  020%=      5-min Rain = 0
KGHS 112120Z 03014G21KT 13/M09 A3024 RMK A01 T01331093  RH  020%=      5-min Rain = 0
KGHS 112125Z 02011G16KT 13/M09 A3024 RMK A01 T01321093  RH  020%=      5-min Rain = 0
KGHS 112130Z 03012KT 13/M09 A3024 RMK A01 T01331093  RH  020%=      5-min Rain = 0
KGHS 112135Z 02010KT 13/M09 A3024 RMK A01 T01331093  RH  020%=      5-min Rain = 0
KGHS 112140Z 01014KT 13/M09 A3023 RMK A01 T01341093  RH  020%=      5-min Rain = 0
KGHS 112145Z 00011G18KT 13/M09 A3023 RMK A01 T01341093  RH  020%=      5-min Rain = 0
KGHS 112150Z 35013KT 14/M09 A3023 RMK A01 T01371093  RH  020%=      5-min Rain = 0
KGHS 112155Z 01014G20KT 14/M09 A3023 RMK A01 T01411093  RH  019%=      5-min Rain = 0
KGHS 112200Z 01014G21KT 14/M09 A3023 RMK A01 T01381092  RH  020%=      5-min Rain = 0
KGHS 112205Z 36014G19KT 14/M09 A3023 RMK A01 T01381090  RH  020%=      5-min Rain = 0
KGHS 112210Z 01013G19KT 14/M09 A3023 RMK A01 T01411090  RH  020%=      5-min Rain = 0
KGHS 112215Z 36013G19KT 14/M09 A3023 RMK A01 T01391090  RH  020%=      5-min Rain = 0
KGHS 112220Z 02010KT 14/M09 A3023 RMK A01 T01421088  RH  020%=      5-min Rain = 0
KGHS 112225Z 00012G19KT 14/M09 A3023 RMK A01 T01421090  RH  019%=      5-min Rain = 0
KGHS 112230Z 00009G14KT 14/M09 A3023 RMK A01 T01361091  RH  020%=      5-min Rain = 0
KGHS 112235Z 00012KT 14/M09 A3023 RMK A01 T01381093  RH  020%=      5-min Rain = 0
KGHS 112240Z 36012G18KT 14/M10 A3023 RMK A01 T01411096  RH  019%=      5-min Rain = 0
KGHS 112245Z 02015G20KT 14/M10 A3023 RMK A01 T01401098  RH  019%=      5-min Rain = 0
KGHS 112250Z 01015G21KT 14/M10 A3023 RMK A01 T01381098  RH  019%=      5-min Rain = 0
KGHS 112255Z 01016KT 14/M10 A3023 RMK A01 T01391098  RH  019%=      5-min Rain = 0
KGHS 112300Z 02014G20KT 14/M10 A3023 RMK A01 T01371100  RH  019%=      5-min Rain = 0
KGHS 112305Z 01014G21KT 14/M10 A3024 RMK A01 T01351100  RH  019%=      5-min Rain = 0
KGHS 112310Z 02015KT 14/M10 A3024 RMK A01 T01351101  RH  019%=      5-min Rain = 0
KGHS 112315Z 02013G18KT 13/M10 A3024 RMK A01 T01341101  RH  019%=      5-min Rain = 0
KGHS 112320Z 35009KT 14/M10 A3024 RMK A01 T01361101  RH  019%=      5-min Rain = 0
KGHS 112325Z 01011G18KT 14/M10 A3024 RMK A01 T01381102  RH  018%=      5-min Rain = 0
KGHS 112330Z 01012G18KT 14/M10 A3024 RMK A01 T01351102  RH  018%=      5-min Rain = 0
KGHS 112335Z 01015G20KT 14/M11 A3024 RMK A01 T01351105  RH  018%=      5-min Rain = 0
KGHS 112340Z 01012G17KT 14/M11 A3024 RMK A01 T01351106  RH  018%=      5-min Rain = 0
KGHS 112345Z 36014G19KT 14/M11 A3024 RMK A01 T01361108  RH  018%=      5-min Rain = 0
KGHS 112350Z 00012G17KT 14/M11 A3024 RMK A01 T01351109  RH  018%=      5-min Rain = 0
KGHS 112355Z 00013KT 13/M11 A3024 RMK A01 T01331109  RH  018%=      5-min Rain = 0
KGHS 120000Z 01013KT 13/M11 A3024 RMK A01 T01301110  RH  018%=      5-min Rain = 0
KGHS 120005Z 00011KT 13/M11 A3024 RMK A01 T01281110  RH  018%=      5-min Rain = 0
KGHS 120010Z 00010KT 13/M11 A3025 RMK A01 T01261110  RH  018%=      5-min Rain = 0
KGHS 120015Z 01007KT 12/M11 A3025 RMK A01 T01241110  RH  019%=      5-min Rain = 0
KGHS 120020Z 02008KT 12/M11 A3025 RMK A01 T01231112  RH  019%=      5-min Rain = 0
KGHS 120025Z 02008KT 12/M11 A3025 RMK A01 T01221112  RH  019%=      5-min Rain = 0
KGHS 120030Z 02008KT 12/M11 A3025 RMK A01 T01221112  RH  019%=      5-min Rain = 0
KGHS 120035Z 02007KT 12/M11 A3025 RMK A01 T01211112  RH  019%=      5-min Rain = 0
KGHS 120040Z 02007KT 12/M11 A3026 RMK A01 T01201112  RH  019%=      5-min Rain = 0
KGHS 120045Z 03008KT 12/M11 A3026 RMK A01 T01171112  RH  019%=      5-min Rain = 0
KGHS 120050Z 02008KT 12/M11 A3026 RMK A01 T01161113  RH  019%=      5-min Rain = 0
KGHS 120055Z 02009KT 12/M12 A3027 RMK A01 T01181116  RH  018%=      5-min Rain = 0
KGHS 120100Z 02010KT 12/M12 A3027 RMK A01 T01171122  RH  018%=      5-min Rain = 0
KGHS 120105Z 02010KT 11/M13 A3027 RMK A01 T01121127  RH  018%=      5-min Rain = 0
KGHS 120110Z 02010KT 11/M13 A3027 RMK A01 T01091134  RH  017%=      5-min Rain = 0
KGHS 120115Z 02011KT 11/M14 A3028 RMK A01 T01081139  RH  016%=      5-min Rain = 0
KGHS 120120Z 02012KT 11/M14 A3028 RMK A01 T01081142  RH  016%=      5-min Rain = 0
KGHS 120125Z 02012KT 11/M14 A3028 RMK A01 T01071143  RH  016%=      5-min Rain = 0
KGHS 120130Z 02013KT 11/M14 A3027 RMK A01 T01051143  RH  016%=      5-min Rain = 0
KGHS 120135Z 03012KT 10/M14 A3027 RMK A01 T01011142  RH  017%=      5-min Rain = 0
KGHS 120140Z 03012KT 10/M14 A3028 RMK A01 T00971142  RH  017%=      5-min Rain = 0
KGHS 120145Z 03012KT 10/M14 A3028 RMK A01 T00951142  RH  018%=      5-min Rain = 0
KGHS 120150Z 03011KT 09/M14 A3028 RMK A01 T00941142  RH  018%=      5-min Rain = 0
KGHS 120155Z 03011KT 09/M14 A3029 RMK A01 T00941143  RH  018%=      5-min Rain = 0
KGHS 120200Z 03012KT 09/M14 A3029 RMK A01 T00941143  RH  017%=      5-min Rain = 0
KGHS 120205Z 03012KT 10/M14 A3029 RMK A01 T00951143  RH  017%=      5-min Rain = 0
KGHS 120210Z 02012KT 10/M14 A3029 RMK A01 T00981143  RH  017%=      5-min Rain = 0
KGHS 120215Z 02012KT 10/M14 A303 RMK A01 T00991143  RH  017%=      5-min Rain = 0
KGHS 120220Z 03013KT 09/M15 A303 RMK A01 T00941147  RH  017%=      5-min Rain = 0
KGHS 120225Z 03012KT 09/M15 A303 RMK A01 T00861148  RH  018%=      5-min Rain = 0
KGHS 120230Z 03013KT 08/M15 A303 RMK A01 T00821152  RH  018%=      5-min Rain = 0
KGHS 120235Z 03012KT 08/M16 A303 RMK A01 T00821155  RH  017%=      5-min Rain = 0
KGHS 120240Z 03012KT 08/M16 A3031 RMK A01 T00811156  RH  017%=      5-min Rain = 0
KGHS 120245Z 03012KT 08/M16 A3031 RMK A01 T00791157  RH  017%=      5-min Rain = 0
KGHS 120250Z 03013KT 08/M16 A3031 RMK A01 T00781158  RH  017%=      5-min Rain = 0
KGHS 120255Z 03012KT 08/M16 A3031 RMK A01 T00791159  RH  017%=      5-min Rain = 0
KGHS 120300Z 03012KT 08/M16 A3031 RMK A01 T00781160  RH  017%=      5-min Rain = 0
KGHS 120305Z 03012KT 08/M16 A3031 RMK A01 T00781161  RH  017%=      5-min Rain = 0
KGHS 120310Z 03012KT 08/M16 A3032 RMK A01 T00781163  RH  017%=      5-min Rain = 0
KGHS 120315Z 03012KT 08/M16 A3032 RMK A01 T00801164  RH  016%=      5-min Rain = 0
KGHS 120320Z 03012KT 08/M17 A3032 RMK A01 T00771165  RH  016%=      5-min Rain = 0
KGHS 120325Z 03012KT 08/M17 A3032 RMK A01 T00771165  RH  016%=      5-min Rain = 0
KGHS 120330Z 03013KT 08/M17 A3032 RMK A01 T00781165  RH  016%=      5-min Rain = 0
KGHS 120335Z 03013KT 08/M17 A3032 RMK A01 T00781166  RH  016%=      5-min Rain = 0
KGHS 120340Z 03013KT 08/M17 A3032 RMK A01 T00791167  RH  016%=      5-min Rain = 0
KGHS 120345Z 02012KT 08/M17 A3032 RMK A01 T00811169  RH  015%=      5-min Rain = 0
KGHS 120350Z 02012KT 09/M17 A3032 RMK A01 T00851171  RH  015%=      5-min Rain = 0
KGHS 120355Z 02012KT 08/M17 A3033 RMK A01 T00821169  RH  015%=      5-min Rain = 0
KGHS 120400Z 02012KT 08/M17 A3033 RMK A01 T00791170  RH  016%=      5-min Rain = 0
KGHS 120405Z 02012KT 08/M17 A3033 RMK A01 T00761170  RH  016%=      5-min Rain = 0
KGHS 120410Z 02012KT 07/M17 A3033 RMK A01 T00721171  RH  016%=      5-min Rain = 0
KGHS 120415Z 02012KT 07/M17 A3033 RMK A01 T00711171  RH  016%=      5-min Rain = 0
KGHS 120420Z 02012KT 07/M17 A3033 RMK A01 T00741172  RH  016%=      5-min Rain = 0
KGHS 120425Z 02012KT 08/M17 A3033 RMK A01 T00761172  RH  016%=      5-min Rain = 0
KGHS 120430Z 02011KT 08/M17 A3034 RMK A01 T00771172  RH  015%=      5-min Rain = 0
KGHS 120435Z 02011KT 08/M17 A3034 RMK A01 T00781173  RH  015%=      5-min Rain = 0
KGHS 120440Z 02012KT 07/M17 A3034 RMK A01 T00731172  RH  016%=      5-min Rain = 0
KGHS 120445Z 02013KT 07/M17 A3034 RMK A01 T00711171  RH  016%=      5-min Rain = 0
KGHS 120450Z 02014KT 07/M17 A3034 RMK A01 T00711169  RH  016%=      5-min Rain = 0
KGHS 120455Z 03014KT 07/M17 A3034 RMK A01 T00681165  RH  017%=      5-min Rain = 0

Page generated in 0.009 seconds.